sensor_id;sensor_type;location;lat;lon;timestamp;temperature;humidity
25945;SHT31;13742;49.306;8.636;2023-03-31T00:00:51;12.18;82.39
25945;SHT31;13742;49.306;8.636;2023-03-31T00:01:46;12.17;82.92
25945;SHT31;13742;49.306;8.636;2023-03-31T00:02:46;12.15;82.75
25945;SHT31;13742;49.306;8.636;2023-03-31T00:03:46;12.14;82.39
25945;SHT31;13742;49.306;8.636;2023-03-31T00:04:51;12.15;82.16
25945;SHT31;13742;49.306;8.636;2023-03-31T00:05:47;12.15;82.18
25945;SHT31;13742;49.306;8.636;2023-03-31T00:06:46;12.15;82.18
25945;SHT31;13742;49.306;8.636;2023-03-31T00:07:47;12.18;81.35
25945;SHT31;13742;49.306;8.636;2023-03-31T00:08:50;12.18;81.10
25945;SHT31;13742;49.306;8.636;2023-03-31T00:09:47;12.18;81.19
25945;SHT31;13742;49.306;8.636;2023-03-31T00:10:47;12.20;81.08
25945;SHT31;13742;49.306;8.636;2023-03-31T00:11:47;12.21;81.15
25945;SHT31;13742;49.306;8.636;2023-03-31T00:12:46;12.21;81.17
25945;SHT31;13742;49.306;8.636;2023-03-31T00:13:46;12.18;81.77
25945;SHT31;13742;49.306;8.636;2023-03-31T00:14:46;12.20;81.58
25945;SHT31;13742;49.306;8.636;2023-03-31T00:15:46;12.18;81.39
25945;SHT31;13742;49.306;8.636;2023-03-31T00:16:46;12.17;81.24
25945;SHT31;13742;49.306;8.636;2023-03-31T00:17:46;12.20;81.61
25945;SHT31;13742;49.306;8.636;2023-03-31T00:18:49;12.21;81.80
25945;SHT31;13742;49.306;8.636;2023-03-31T00:19:49;12.18;81.93
25945;SHT31;13742;49.306;8.636;2023-03-31T00:20:46;12.20;81.93
25945;SHT31;13742;49.306;8.636;2023-03-31T00:21:47;12.21;82.22
25945;SHT31;13742;49.306;8.636;2023-03-31T00:22:46;12.20;81.81
25945;SHT31;13742;49.306;8.636;2023-03-31T00:23:46;12.17;81.89
25945;SHT31;13742;49.306;8.636;2023-03-31T00:24:47;12.21;81.70
25945;SHT31;13742;49.306;8.636;2023-03-31T00:25:46;12.17;81.75
25945;SHT31;13742;49.306;8.636;2023-03-31T00:26:46;12.17;81.95
25945;SHT31;13742;49.306;8.636;2023-03-31T00:27:49;12.17;81.88
25945;SHT31;13742;49.306;8.636;2023-03-31T00:28:46;12.18;81.77
25945;SHT31;13742;49.306;8.636;2023-03-31T00:29:49;12.18;81.77
25945;SHT31;13742;49.306;8.636;2023-03-31T00:30:48;12.20;82.07
25945;SHT31;13742;49.306;8.636;2023-03-31T00:31:46;12.18;81.89
25945;SHT31;13742;49.306;8.636;2023-03-31T00:32:46;12.18;82.05
25945;SHT31;13742;49.306;8.636;2023-03-31T00:33:46;12.18;81.99
25945;SHT31;13742;49.306;8.636;2023-03-31T00:34:46;12.18;82.35
25945;SHT31;13742;49.306;8.636;2023-03-31T00:35:50;12.18;82.06
25945;SHT31;13742;49.306;8.636;2023-03-31T00:36:46;12.18;81.99
25945;SHT31;13742;49.306;8.636;2023-03-31T00:37:46;12.20;81.73
25945;SHT31;13742;49.306;8.636;2023-03-31T00:38:47;12.18;81.85
25945;SHT31;13742;49.306;8.636;2023-03-31T00:39:46;12.18;82.05
25945;SHT31;13742;49.306;8.636;2023-03-31T00:40:46;12.18;82.07
25945;SHT31;13742;49.306;8.636;2023-03-31T00:41:46;12.18;82.12
25945;SHT31;13742;49.306;8.636;2023-03-31T00:42:47;12.17;81.89
25945;SHT31;13742;49.306;8.636;2023-03-31T00:45:46;12.15;81.78
25945;SHT31;13742;49.306;8.636;2023-03-31T00:47:50;12.14;81.30
25945;SHT31;13742;49.306;8.636;2023-03-31T00:48:51;12.15;81.86
25945;SHT31;13742;49.306;8.636;2023-03-31T00:49:50;12.12;81.87
25945;SHT31;13742;49.306;8.636;2023-03-31T00:50:51;12.09;82.32
25945;SHT31;13742;49.306;8.636;2023-03-31T00:51:48;12.11;81.51
25945;SHT31;13742;49.306;8.636;2023-03-31T00:52:50;12.09;81.47
25945;SHT31;13742;49.306;8.636;2023-03-31T00:53:52;12.11;81.40
25945;SHT31;13742;49.306;8.636;2023-03-31T00:55:50;12.12;80.27
25945;SHT31;13742;49.306;8.636;2023-03-31T00:56:50;12.14;80.28
25945;SHT31;13742;49.306;8.636;2023-03-31T00:57:47;12.14;79.95
25945;SHT31;13742;49.306;8.636;2023-03-31T00:58:49;12.11;79.57
25945;SHT31;13742;49.306;8.636;2023-03-31T00:59:55;12.17;79.29
25945;SHT31;13742;49.306;8.636;2023-03-31T01:00:48;12.20;79.17
25945;SHT31;13742;49.306;8.636;2023-03-31T01:01:47;12.17;79.47
25945;SHT31;13742;49.306;8.636;2023-03-31T01:02:56;12.17;79.99
25945;SHT31;13742;49.306;8.636;2023-03-31T01:03:46;12.17;79.87
25945;SHT31;13742;49.306;8.636;2023-03-31T01:04:51;12.17;79.93
25945;SHT31;13742;49.306;8.636;2023-03-31T01:06:09;12.18;79.73
25945;SHT31;13742;49.306;8.636;2023-03-31T01:06:56;12.17;79.53
25945;SHT31;13742;49.306;8.636;2023-03-31T01:07:47;12.17;79.66
25945;SHT31;13742;49.306;8.636;2023-03-31T01:08:48;12.20;79.90
25945;SHT31;13742;49.306;8.636;2023-03-31T01:09:47;12.18;80.02
25945;SHT31;13742;49.306;8.636;2023-03-31T01:10:49;12.18;79.83
25945;SHT31;13742;49.306;8.636;2023-03-31T01:11:46;12.17;79.98
25945;SHT31;13742;49.306;8.636;2023-03-31T01:12:49;12.18;79.89
25945;SHT31;13742;49.306;8.636;2023-03-31T01:13:51;12.17;80.10
25945;SHT31;13742;49.306;8.636;2023-03-31T01:14:48;12.17;80.28
25945;SHT31;13742;49.306;8.636;2023-03-31T01:15:46;12.18;80.15
25945;SHT31;13742;49.306;8.636;2023-03-31T01:16:46;12.18;80.30
25945;SHT31;13742;49.306;8.636;2023-03-31T01:17:48;12.17;81.13
25945;SHT31;13742;49.306;8.636;2023-03-31T01:18:49;12.20;81.45
25945;SHT31;13742;49.306;8.636;2023-03-31T01:22:07;12.15;80.49
25945;SHT31;13742;49.306;8.636;2023-03-31T01:24:09;12.14;80.55
25945;SHT31;13742;49.306;8.636;2023-03-31T01:27:58;12.11;80.95
25945;SHT31;13742;49.306;8.636;2023-03-31T01:29:12;12.11;81.26
25945;SHT31;13742;49.306;8.636;2023-03-31T01:36:01;12.08;81.23
25945;SHT31;13742;49.306;8.636;2023-03-31T01:40:09;12.06;80.80
25945;SHT31;13742;49.306;8.636;2023-03-31T01:42:56;12.08;80.76
25945;SHT31;13742;49.306;8.636;2023-03-31T01:45:08;12.05;80.52
25945;SHT31;13742;49.306;8.636;2023-03-31T01:45:56;12.05;80.37
25945;SHT31;13742;49.306;8.636;2023-03-31T01:46:54;12.05;80.58
25945;SHT31;13742;49.306;8.636;2023-03-31T01:47:56;12.06;80.78
25945;SHT31;13742;49.306;8.636;2023-03-31T01:49:55;12.02;80.49
25945;SHT31;13742;49.306;8.636;2023-03-31T01:50:55;12.04;80.72
25945;SHT31;13742;49.306;8.636;2023-03-31T01:51:56;12.05;79.91
25945;SHT31;13742;49.306;8.636;2023-03-31T01:53:59;12.05;80.19
25945;SHT31;13742;49.306;8.636;2023-03-31T01:55:41;12.05;79.94
25945;SHT31;13742;49.306;8.636;2023-03-31T01:56:54;12.05;79.63
25945;SHT31;13742;49.306;8.636;2023-03-31T01:57:50;12.08;79.78
25945;SHT31;13742;49.306;8.636;2023-03-31T02:00:01;12.08;79.42
25945;SHT31;13742;49.306;8.636;2023-03-31T02:00:58;12.05;79.25
25945;SHT31;13742;49.306;8.636;2023-03-31T02:01:56;12.05;79.38
25945;SHT31;13742;49.306;8.636;2023-03-31T02:02:56;12.05;79.17
25945;SHT31;13742;49.306;8.636;2023-03-31T02:03:57;12.08;79.22
25945;SHT31;13742;49.306;8.636;2023-03-31T02:04:51;12.06;79.46
25945;SHT31;13742;49.306;8.636;2023-03-31T02:05:51;12.08;79.32
25945;SHT31;13742;49.306;8.636;2023-03-31T02:06:57;12.06;79.22
25945;SHT31;13742;49.306;8.636;2023-03-31T02:07:56;12.06;79.18
25945;SHT31;13742;49.306;8.636;2023-03-31T02:08:51;12.08;79.48
25945;SHT31;13742;49.306;8.636;2023-03-31T02:09:56;12.09;79.36
25945;SHT31;13742;49.306;8.636;2023-03-31T02:10:47;12.06;79.19
25945;SHT31;13742;49.306;8.636;2023-03-31T02:11:47;12.06;79.18
25945;SHT31;13742;49.306;8.636;2023-03-31T02:12:46;12.06;79.36
25945;SHT31;13742;49.306;8.636;2023-03-31T02:13:49;12.05;79.47
25945;SHT31;13742;49.306;8.636;2023-03-31T02:14:49;12.06;79.60
25945;SHT31;13742;49.306;8.636;2023-03-31T02:15:51;12.05;79.60
25945;SHT31;13742;49.306;8.636;2023-03-31T02:16:48;12.05;79.29
25945;SHT31;13742;49.306;8.636;2023-03-31T02:17:48;12.06;79.20
25945;SHT31;13742;49.306;8.636;2023-03-31T02:18:48;12.08;79.47
25945;SHT31;13742;49.306;8.636;2023-03-31T02:19:49;12.04;79.46
25945;SHT31;13742;49.306;8.636;2023-03-31T02:20:48;12.05;79.58
25945;SHT31;13742;49.306;8.636;2023-03-31T02:21:48;12.04;79.66
25945;SHT31;13742;49.306;8.636;2023-03-31T02:22:49;12.05;79.67
25945;SHT31;13742;49.306;8.636;2023-03-31T02:23:48;12.05;79.80
25945;SHT31;13742;49.306;8.636;2023-03-31T02:24:47;12.04;79.67
25945;SHT31;13742;49.306;8.636;2023-03-31T02:25:50;12.05;79.78
25945;SHT31;13742;49.306;8.636;2023-03-31T02:26:57;12.05;79.93
25945;SHT31;13742;49.306;8.636;2023-03-31T02:27:55;12.05;79.93
25945;SHT31;13742;49.306;8.636;2023-03-31T02:28:46;12.05;79.97
25945;SHT31;13742;49.306;8.636;2023-03-31T02:29:47;12.01;80.32
25945;SHT31;13742;49.306;8.636;2023-03-31T02:31:58;12.05;79.97
25945;SHT31;13742;49.306;8.636;2023-03-31T02:32:46;12.02;80.13
25945;SHT31;13742;49.306;8.636;2023-03-31T02:33:47;12.02;80.36
25945;SHT31;13742;49.306;8.636;2023-03-31T02:34:46;12.04;80.10
25945;SHT31;13742;49.306;8.636;2023-03-31T02:35:46;12.04;80.02
25945;SHT31;13742;49.306;8.636;2023-03-31T02:36:47;12.01;80.09
25945;SHT31;13742;49.306;8.636;2023-03-31T02:37:48;12.02;80.42
25945;SHT31;13742;49.306;8.636;2023-03-31T02:38:51;12.02;80.36
25945;SHT31;13742;49.306;8.636;2023-03-31T02:39:48;12.04;80.30
25945;SHT31;13742;49.306;8.636;2023-03-31T02:40:46;12.04;80.05
25945;SHT31;13742;49.306;8.636;2023-03-31T02:41:46;12.02;79.86
25945;SHT31;13742;49.306;8.636;2023-03-31T02:42:47;12.02;79.71
25945;SHT31;13742;49.306;8.636;2023-03-31T02:43:46;12.04;79.62
25945;SHT31;13742;49.306;8.636;2023-03-31T02:44:46;12.02;79.69
25945;SHT31;13742;49.306;8.636;2023-03-31T02:45:50;12.02;79.92
25945;SHT31;13742;49.306;8.636;2023-03-31T02:46:47;12.01;79.95
25945;SHT31;13742;49.306;8.636;2023-03-31T02:47:46;12.02;80.27
25945;SHT31;13742;49.306;8.636;2023-03-31T02:48:49;12.02;80.65
25945;SHT31;13742;49.306;8.636;2023-03-31T02:49:55;12.02;80.33
25945;SHT31;13742;49.306;8.636;2023-03-31T02:51:55;12.02;80.09
25945;SHT31;13742;49.306;8.636;2023-03-31T02:54:04;12.01;80.08
25945;SHT31;13742;49.306;8.636;2023-03-31T02:54:56;12.01;80.01
25945;SHT31;13742;49.306;8.636;2023-03-31T02:55:58;12.01;80.02
25945;SHT31;13742;49.306;8.636;2023-03-31T02:56:57;12.00;80.16
25945;SHT31;13742;49.306;8.636;2023-03-31T03:03:18;12.01;80.34
25945;SHT31;13742;49.306;8.636;2023-03-31T03:04:58;11.98;80.14
25945;SHT31;13742;49.306;8.636;2023-03-31T03:08:46;11.98;80.30
25945;SHT31;13742;49.306;8.636;2023-03-31T03:11:54;11.95;79.80
25945;SHT31;13742;49.306;8.636;2023-03-31T03:12:56;11.95;79.63
25945;SHT31;13742;49.306;8.636;2023-03-31T03:13:50;11.94;79.84
25945;SHT31;13742;49.306;8.636;2023-03-31T03:15:50;11.94;79.73
25945;SHT31;13742;49.306;8.636;2023-03-31T03:17:47;11.94;79.55
25945;SHT31;13742;49.306;8.636;2023-03-31T03:19:51;11.97;79.68
25945;SHT31;13742;49.306;8.636;2023-03-31T03:20:48;11.94;79.41
25945;SHT31;13742;49.306;8.636;2023-03-31T03:21:47;11.91;79.24
25945;SHT31;13742;49.306;8.636;2023-03-31T03:22:46;11.91;79.30
25945;SHT31;13742;49.306;8.636;2023-03-31T03:23:46;11.94;79.35
25945;SHT31;13742;49.306;8.636;2023-03-31T03:24:46;11.92;79.19
25945;SHT31;13742;49.306;8.636;2023-03-31T03:25:47;11.92;79.34
25945;SHT31;13742;49.306;8.636;2023-03-31T03:26:47;11.91;79.61
25945;SHT31;13742;49.306;8.636;2023-03-31T03:27:46;11.92;79.97
25945;SHT31;13742;49.306;8.636;2023-03-31T03:28:46;11.91;79.66
25945;SHT31;13742;49.306;8.636;2023-03-31T03:29:46;11.91;79.70
25945;SHT31;13742;49.306;8.636;2023-03-31T03:30:46;11.91;79.52
25945;SHT31;13742;49.306;8.636;2023-03-31T03:31:46;11.92;79.39
25945;SHT31;13742;49.306;8.636;2023-03-31T03:32:46;11.91;79.35
25945;SHT31;13742;49.306;8.636;2023-03-31T03:33:46;11.91;79.86
25945;SHT31;13742;49.306;8.636;2023-03-31T03:34:46;11.90;79.89
25945;SHT31;13742;49.306;8.636;2023-03-31T03:35:46;11.90;79.74
25945;SHT31;13742;49.306;8.636;2023-03-31T03:36:46;11.90;79.76
25945;SHT31;13742;49.306;8.636;2023-03-31T03:37:46;11.90;79.66
25945;SHT31;13742;49.306;8.636;2023-03-31T03:38:46;11.90;79.85
25945;SHT31;13742;49.306;8.636;2023-03-31T03:39:46;11.88;79.73
25945;SHT31;13742;49.306;8.636;2023-03-31T03:40:46;11.87;79.68
25945;SHT31;13742;49.306;8.636;2023-03-31T03:41:46;11.88;79.28
25945;SHT31;13742;49.306;8.636;2023-03-31T03:42:46;11.84;79.37
25945;SHT31;13742;49.306;8.636;2023-03-31T03:43:46;11.84;79.12
25945;SHT31;13742;49.306;8.636;2023-03-31T03:44:46;11.81;79.05
25945;SHT31;13742;49.306;8.636;2023-03-31T03:45:48;11.77;78.92
25945;SHT31;13742;49.306;8.636;2023-03-31T03:46:46;11.80;78.98
25945;SHT31;13742;49.306;8.636;2023-03-31T03:47:46;11.80;79.08
25945;SHT31;13742;49.306;8.636;2023-03-31T03:48:46;11.77;79.20
25945;SHT31;13742;49.306;8.636;2023-03-31T03:49:48;11.77;79.33
25945;SHT31;13742;49.306;8.636;2023-03-31T03:50:46;11.74;79.43
25945;SHT31;13742;49.306;8.636;2023-03-31T03:51:46;11.77;79.68
25945;SHT31;13742;49.306;8.636;2023-03-31T03:52:46;11.77;79.97
25945;SHT31;13742;49.306;8.636;2023-03-31T03:53:46;11.76;79.74
25945;SHT31;13742;49.306;8.636;2023-03-31T03:54:46;11.74;79.68
25945;SHT31;13742;49.306;8.636;2023-03-31T03:55:49;11.74;79.88
25945;SHT31;13742;49.306;8.636;2023-03-31T03:56:46;11.74;79.97
25945;SHT31;13742;49.306;8.636;2023-03-31T03:57:46;11.73;79.97
25945;SHT31;13742;49.306;8.636;2023-03-31T03:58:46;11.76;79.90
25945;SHT31;13742;49.306;8.636;2023-03-31T03:59:46;11.76;79.98
25945;SHT31;13742;49.306;8.636;2023-03-31T04:00:47;11.73;80.04
25945;SHT31;13742;49.306;8.636;2023-03-31T04:01:46;11.71;79.97
25945;SHT31;13742;49.306;8.636;2023-03-31T04:02:46;11.71;80.20
25945;SHT31;13742;49.306;8.636;2023-03-31T04:03:46;11.70;80.09
25945;SHT31;13742;49.306;8.636;2023-03-31T04:04:46;11.70;80.29
25945;SHT31;13742;49.306;8.636;2023-03-31T04:05:48;11.71;80.43
25945;SHT31;13742;49.306;8.636;2023-03-31T04:06:46;11.67;80.20
25945;SHT31;13742;49.306;8.636;2023-03-31T04:07:46;11.69;80.49
25945;SHT31;13742;49.306;8.636;2023-03-31T04:08:46;11.69;80.77
25945;SHT31;13742;49.306;8.636;2023-03-31T04:09:46;11.71;80.83
25945;SHT31;13742;49.306;8.636;2023-03-31T04:10:48;11.69;80.82
25945;SHT31;13742;49.306;8.636;2023-03-31T04:11:46;11.69;80.62
25945;SHT31;13742;49.306;8.636;2023-03-31T04:12:46;11.66;80.44
25945;SHT31;13742;49.306;8.636;2023-03-31T04:13:46;11.66;80.66
25945;SHT31;13742;49.306;8.636;2023-03-31T04:14:46;11.67;80.91
25945;SHT31;13742;49.306;8.636;2023-03-31T04:15:46;11.69;80.52
25945;SHT31;13742;49.306;8.636;2023-03-31T04:16:47;11.64;80.63
25945;SHT31;13742;49.306;8.636;2023-03-31T04:17:49;11.66;80.79
25945;SHT31;13742;49.306;8.636;2023-03-31T04:18:47;11.66;80.90
25945;SHT31;13742;49.306;8.636;2023-03-31T04:19:49;11.67;80.98
25945;SHT31;13742;49.306;8.636;2023-03-31T04:20:53;11.63;80.88
25945;SHT31;13742;49.306;8.636;2023-03-31T04:21:49;11.63;81.11
25945;SHT31;13742;49.306;8.636;2023-03-31T04:22:49;11.64;81.10
25945;SHT31;13742;49.306;8.636;2023-03-31T04:23:46;11.64;81.13
25945;SHT31;13742;49.306;8.636;2023-03-31T04:24:51;11.64;80.90
25945;SHT31;13742;49.306;8.636;2023-03-31T04:25:49;11.63;80.92
25945;SHT31;13742;49.306;8.636;2023-03-31T04:26:49;11.63;81.20
25945;SHT31;13742;49.306;8.636;2023-03-31T04:27:50;11.63;81.36
25945;SHT31;13742;49.306;8.636;2023-03-31T04:28:49;11.63;81.15
25945;SHT31;13742;49.306;8.636;2023-03-31T04:29:53;11.60;81.27
25945;SHT31;13742;49.306;8.636;2023-03-31T04:30:46;11.63;81.57
25945;SHT31;13742;49.306;8.636;2023-03-31T04:31:46;11.63;81.71
25945;SHT31;13742;49.306;8.636;2023-03-31T04:32:51;11.63;81.55
25945;SHT31;13742;49.306;8.636;2023-03-31T04:33:47;11.61;81.35
25945;SHT31;13742;49.306;8.636;2023-03-31T04:34:47;11.61;81.33
25945;SHT31;13742;49.306;8.636;2023-03-31T04:35:49;11.61;81.46
25945;SHT31;13742;49.306;8.636;2023-03-31T04:36:46;11.59;81.29
25945;SHT31;13742;49.306;8.636;2023-03-31T04:37:47;11.59;81.31
25945;SHT31;13742;49.306;8.636;2023-03-31T04:38:48;11.57;81.64
25945;SHT31;13742;49.306;8.636;2023-03-31T04:39:49;11.57;81.30
25945;SHT31;13742;49.306;8.636;2023-03-31T04:40:49;11.59;81.38
25945;SHT31;13742;49.306;8.636;2023-03-31T04:41:46;11.59;81.41
25945;SHT31;13742;49.306;8.636;2023-03-31T04:42:46;11.56;81.25
25945;SHT31;13742;49.306;8.636;2023-03-31T04:43:46;11.54;81.36
25945;SHT31;13742;49.306;8.636;2023-03-31T04:44:46;11.54;81.36
25945;SHT31;13742;49.306;8.636;2023-03-31T04:45:46;11.54;81.59
25945;SHT31;13742;49.306;8.636;2023-03-31T04:46:46;11.54;81.60
25945;SHT31;13742;49.306;8.636;2023-03-31T04:47:46;11.53;81.54
25945;SHT31;13742;49.306;8.636;2023-03-31T04:48:46;11.54;81.98
25945;SHT31;13742;49.306;8.636;2023-03-31T04:49:46;11.53;81.74
25945;SHT31;13742;49.306;8.636;2023-03-31T04:50:46;11.56;81.67
25945;SHT31;13742;49.306;8.636;2023-03-31T04:51:46;11.53;81.61
25945;SHT31;13742;49.306;8.636;2023-03-31T04:52:46;11.53;81.46
25945;SHT31;13742;49.306;8.636;2023-03-31T04:53:46;11.54;81.65
25945;SHT31;13742;49.306;8.636;2023-03-31T04:54:46;11.52;81.47
25945;SHT31;13742;49.306;8.636;2023-03-31T04:55:48;11.52;81.48
25945;SHT31;13742;49.306;8.636;2023-03-31T04:56:46;11.54;81.60
25945;SHT31;13742;49.306;8.636;2023-03-31T04:57:46;11.54;81.37
25945;SHT31;13742;49.306;8.636;2023-03-31T04:58:46;11.52;81.28
25945;SHT31;13742;49.306;8.636;2023-03-31T04:59:46;11.50;81.48
25945;SHT31;13742;49.306;8.636;2023-03-31T05:00:46;11.50;81.51
25945;SHT31;13742;49.306;8.636;2023-03-31T05:01:47;11.53;81.59
25945;SHT31;13742;49.306;8.636;2023-03-31T05:02:46;11.52;81.56
25945;SHT31;13742;49.306;8.636;2023-03-31T05:03:49;11.53;81.46
25945;SHT31;13742;49.306;8.636;2023-03-31T05:04:46;11.52;81.51
25945;SHT31;13742;49.306;8.636;2023-03-31T05:05:46;11.50;81.49
25945;SHT31;13742;49.306;8.636;2023-03-31T05:06:46;11.53;81.51
25945;SHT31;13742;49.306;8.636;2023-03-31T05:07:46;11.50;81.46
25945;SHT31;13742;49.306;8.636;2023-03-31T05:08:46;11.49;81.46
25945;SHT31;13742;49.306;8.636;2023-03-31T05:09:46;11.47;81.35
25945;SHT31;13742;49.306;8.636;2023-03-31T05:10:46;11.49;81.36
25945;SHT31;13742;49.306;8.636;2023-03-31T05:11:46;11.49;81.28
25945;SHT31;13742;49.306;8.636;2023-03-31T05:12:46;11.47;81.55
25945;SHT31;13742;49.306;8.636;2023-03-31T05:13:46;11.50;81.53
25945;SHT31;13742;49.306;8.636;2023-03-31T05:14:46;11.49;81.57
25945;SHT31;13742;49.306;8.636;2023-03-31T05:15:49;11.50;81.63
25945;SHT31;13742;49.306;8.636;2023-03-31T05:16:46;11.52;81.44
25945;SHT31;13742;49.306;8.636;2023-03-31T05:17:47;11.52;82.06
25945;SHT31;13742;49.306;8.636;2023-03-31T05:18:46;11.50;82.26
25945;SHT31;13742;49.306;8.636;2023-03-31T05:19:46;11.49;82.56
25945;SHT31;13742;49.306;8.636;2023-03-31T05:20:46;11.46;82.86
25945;SHT31;13742;49.306;8.636;2023-03-31T05:21:46;11.46;82.99
25945;SHT31;13742;49.306;8.636;2023-03-31T05:22:46;11.46;83.31
25945;SHT31;13742;49.306;8.636;2023-03-31T05:23:47;11.45;83.18
25945;SHT31;13742;49.306;8.636;2023-03-31T05:24:46;11.43;83.19
25945;SHT31;13742;49.306;8.636;2023-03-31T05:25:46;11.43;83.29
25945;SHT31;13742;49.306;8.636;2023-03-31T05:26:51;11.39;83.75
25945;SHT31;13742;49.306;8.636;2023-03-31T05:27:46;11.40;83.67
25945;SHT31;13742;49.306;8.636;2023-03-31T05:28:46;11.39;83.75
25945;SHT31;13742;49.306;8.636;2023-03-31T05:29:46;11.39;84.09
25945;SHT31;13742;49.306;8.636;2023-03-31T05:30:46;11.36;84.19
25945;SHT31;13742;49.306;8.636;2023-03-31T05:31:46;11.36;84.33
25945;SHT31;13742;49.306;8.636;2023-03-31T05:32:46;11.32;84.60
25945;SHT31;13742;49.306;8.636;2023-03-31T05:33:46;11.27;84.77
25945;SHT31;13742;49.306;8.636;2023-03-31T05:34:46;11.25;84.75
25945;SHT31;13742;49.306;8.636;2023-03-31T05:35:46;11.25;84.57
25945;SHT31;13742;49.306;8.636;2023-03-31T05:36:47;11.22;85.25
25945;SHT31;13742;49.306;8.636;2023-03-31T05:37:46;11.18;85.33
25945;SHT31;13742;49.306;8.636;2023-03-31T05:38:46;11.18;85.40
25945;SHT31;13742;49.306;8.636;2023-03-31T05:39:46;11.18;85.52
25945;SHT31;13742;49.306;8.636;2023-03-31T05:40:46;11.16;85.50
25945;SHT31;13742;49.306;8.636;2023-03-31T05:41:46;11.16;85.55
25945;SHT31;13742;49.306;8.636;2023-03-31T05:42:46;11.13;85.92
25945;SHT31;13742;49.306;8.636;2023-03-31T05:43:46;11.09;86.03
25945;SHT31;13742;49.306;8.636;2023-03-31T05:44:46;11.11;85.98
25945;SHT31;13742;49.306;8.636;2023-03-31T05:45:46;11.08;85.92
25945;SHT31;13742;49.306;8.636;2023-03-31T05:46:46;11.06;86.28
25945;SHT31;13742;49.306;8.636;2023-03-31T05:47:46;11.05;86.27
25945;SHT31;13742;49.306;8.636;2023-03-31T05:48:46;11.06;86.28
25945;SHT31;13742;49.306;8.636;2023-03-31T05:49:46;11.06;86.48
25945;SHT31;13742;49.306;8.636;2023-03-31T05:50:46;11.03;86.56
25945;SHT31;13742;49.306;8.636;2023-03-31T05:51:46;10.99;87.10
25945;SHT31;13742;49.306;8.636;2023-03-31T05:52:46;11.01;86.92
25945;SHT31;13742;49.306;8.636;2023-03-31T05:53:46;10.96;87.12
25945;SHT31;13742;49.306;8.636;2023-03-31T05:54:46;10.95;87.00
25945;SHT31;13742;49.306;8.636;2023-03-31T05:55:46;10.95;87.26
25945;SHT31;13742;49.306;8.636;2023-03-31T05:56:46;10.95;87.35
25945;SHT31;13742;49.306;8.636;2023-03-31T05:57:46;10.95;87.35
25945;SHT31;13742;49.306;8.636;2023-03-31T05:58:46;10.91;87.70
25945;SHT31;13742;49.306;8.636;2023-03-31T05:59:46;10.91;87.32
25945;SHT31;13742;49.306;8.636;2023-03-31T06:00:46;10.92;87.30
25945;SHT31;13742;49.306;8.636;2023-03-31T06:01:46;10.91;87.50
25945;SHT31;13742;49.306;8.636;2023-03-31T06:02:46;10.88;87.59
25945;SHT31;13742;49.306;8.636;2023-03-31T06:03:46;10.90;87.66
25945;SHT31;13742;49.306;8.636;2023-03-31T06:04:46;10.88;87.71
25945;SHT31;13742;49.306;8.636;2023-03-31T06:05:47;10.87;87.61
25945;SHT31;13742;49.306;8.636;2023-03-31T06:06:49;10.87;87.53
25945;SHT31;13742;49.306;8.636;2023-03-31T06:07:46;10.87;87.77
25945;SHT31;13742;49.306;8.636;2023-03-31T06:08:46;10.87;87.99
25945;SHT31;13742;49.306;8.636;2023-03-31T06:09:46;10.85;87.98
25945;SHT31;13742;49.306;8.636;2023-03-31T06:10:46;10.85;88.12
25945;SHT31;13742;49.306;8.636;2023-03-31T06:11:46;10.87;88.01
25945;SHT31;13742;49.306;8.636;2023-03-31T06:12:46;10.81;88.21
25945;SHT31;13742;49.306;8.636;2023-03-31T06:13:46;10.84;88.17
25945;SHT31;13742;49.306;8.636;2023-03-31T06:14:46;10.82;88.32
25945;SHT31;13742;49.306;8.636;2023-03-31T06:15:52;10.82;88.23
25945;SHT31;13742;49.306;8.636;2023-03-31T06:16:47;10.85;88.38
25945;SHT31;13742;49.306;8.636;2023-03-31T06:17:46;10.85;88.31
25945;SHT31;13742;49.306;8.636;2023-03-31T06:18:47;10.82;88.33
25945;SHT31;13742;49.306;8.636;2023-03-31T06:19:46;10.82;88.31
25945;SHT31;13742;49.306;8.636;2023-03-31T06:20:46;10.82;88.21
25945;SHT31;13742;49.306;8.636;2023-03-31T06:21:46;10.84;88.44
25945;SHT31;13742;49.306;8.636;2023-03-31T06:22:46;10.82;88.17
25945;SHT31;13742;49.306;8.636;2023-03-31T06:23:46;10.85;88.33
25945;SHT31;13742;49.306;8.636;2023-03-31T06:24:46;10.85;88.23
25945;SHT31;13742;49.306;8.636;2023-03-31T06:25:46;10.85;88.19
25945;SHT31;13742;49.306;8.636;2023-03-31T06:26:46;10.85;88.31
25945;SHT31;13742;49.306;8.636;2023-03-31T06:27:46;10.88;88.08
25945;SHT31;13742;49.306;8.636;2023-03-31T06:28:46;10.84;88.28
25945;SHT31;13742;49.306;8.636;2023-03-31T06:29:46;10.85;88.23
25945;SHT31;13742;49.306;8.636;2023-03-31T06:30:46;10.87;88.39
25945;SHT31;13742;49.306;8.636;2023-03-31T06:31:46;10.88;88.29
25945;SHT31;13742;49.306;8.636;2023-03-31T06:32:46;10.88;88.39
25945;SHT31;13742;49.306;8.636;2023-03-31T06:33:46;10.87;88.42
25945;SHT31;13742;49.306;8.636;2023-03-31T06:34:46;10.90;88.53
25945;SHT31;13742;49.306;8.636;2023-03-31T06:35:46;10.90;88.55
25945;SHT31;13742;49.306;8.636;2023-03-31T06:36:46;10.88;88.25
25945;SHT31;13742;49.306;8.636;2023-03-31T06:37:46;10.91;88.22
25945;SHT31;13742;49.306;8.636;2023-03-31T06:38:47;10.91;88.44
25945;SHT31;13742;49.306;8.636;2023-03-31T06:39:46;10.90;88.65
25945;SHT31;13742;49.306;8.636;2023-03-31T06:40:46;10.87;88.78
25945;SHT31;13742;49.306;8.636;2023-03-31T06:41:46;10.91;88.78
25945;SHT31;13742;49.306;8.636;2023-03-31T06:42:46;10.90;88.76
25945;SHT31;13742;49.306;8.636;2023-03-31T06:43:46;10.90;88.81
25945;SHT31;13742;49.306;8.636;2023-03-31T06:44:46;10.87;88.72
25945;SHT31;13742;49.306;8.636;2023-03-31T06:45:46;10.91;88.59
25945;SHT31;13742;49.306;8.636;2023-03-31T06:46:46;10.88;88.70
25945;SHT31;13742;49.306;8.636;2023-03-31T06:47:46;10.90;88.54
25945;SHT31;13742;49.306;8.636;2023-03-31T06:48:53;10.92;88.60
25945;SHT31;13742;49.306;8.636;2023-03-31T06:49:49;10.94;88.72
25945;SHT31;13742;49.306;8.636;2023-03-31T06:50:46;10.96;88.60
25945;SHT31;13742;49.306;8.636;2023-03-31T06:51:46;10.96;88.55
25945;SHT31;13742;49.306;8.636;2023-03-31T06:52:46;10.99;88.45
25945;SHT31;13742;49.306;8.636;2023-03-31T06:53:46;11.02;88.55
25945;SHT31;13742;49.306;8.636;2023-03-31T06:54:46;11.02;88.49
25945;SHT31;13742;49.306;8.636;2023-03-31T06:55:46;10.98;88.94
25945;SHT31;13742;49.306;8.636;2023-03-31T06:56:46;11.03;88.66
25945;SHT31;13742;49.306;8.636;2023-03-31T06:57:46;11.02;88.67
25945;SHT31;13742;49.306;8.636;2023-03-31T06:58:46;11.02;88.51
25945;SHT31;13742;49.306;8.636;2023-03-31T06:59:46;11.06;88.80
25945;SHT31;13742;49.306;8.636;2023-03-31T07:00:46;11.08;88.71
25945;SHT31;13742;49.306;8.636;2023-03-31T07:01:47;11.05;88.76